createdAt,value
2023-03-21T00:04:24.733Z,14.25
2023-03-21T00:09:27.065Z,12.82
2023-03-21T00:14:31.020Z,12.88
2023-03-21T00:19:32.719Z,12.95
2023-03-21T00:24:35.302Z,12.90
2023-03-21T00:29:36.793Z,12.38
2023-03-21T00:34:43.322Z,11.35
2023-03-21T00:39:56.137Z,11.55
2023-03-21T00:44:57.790Z,10.88
2023-03-21T00:49:59.304Z,10.88
2023-03-21T00:55:01.507Z,11.35
2023-03-21T01:00:04.332Z,11.38
2023-03-21T01:05:06.368Z,12.25
2023-03-21T01:10:08.188Z,11.18
2023-03-21T01:15:09.931Z,11.50
2023-03-21T01:20:12.168Z,11.95
2023-03-21T01:25:22.228Z,13.35
2023-03-21T01:30:25.003Z,12.85
2023-03-21T01:35:30.062Z,13.85
2023-03-21T01:40:33.623Z,13.85
2023-03-21T01:46:12.371Z,11.95
2023-03-21T01:51:13.888Z,13.23
2023-03-21T01:56:23.618Z,14.98
2023-03-21T02:01:25.156Z,16.35
2023-03-21T02:06:44.216Z,18.92
2023-03-21T02:11:47.192Z,20.38
2023-03-21T02:16:56.272Z,22.15
2023-03-21T02:22:16.403Z,23.77
2023-03-21T02:27:23.827Z,22.25
2023-03-21T02:32:58.642Z,21.45
2023-03-21T02:38:15.430Z,20.42
2023-03-21T02:43:31.435Z,20.80
2023-03-21T02:48:50.296Z,21.63
2023-03-21T02:54:23.789Z,21.10
2023-03-21T02:59:23.542Z,20.55
2023-03-21T03:04:27.909Z,22.60
2023-03-21T03:09:49.497Z,22.40
2023-03-21T03:15:13.673Z,22.65
2023-03-21T03:20:21.092Z,22.92
2023-03-21T03:25:41.634Z,22.08
2023-03-21T03:30:57.497Z,22.45
2023-03-21T03:36:21.593Z,21.98
2023-03-21T03:41:50.286Z,21.45
2023-03-21T03:46:59.693Z,20.67
2023-03-21T03:52:06.908Z,19.88
2023-03-21T03:57:09.766Z,18.83
2023-03-21T04:02:11.559Z,18.20
2023-03-21T04:07:13.615Z,18.55
2023-03-21T04:12:15.342Z,19.15
2023-03-21T04:17:17.520Z,20.75
2023-03-21T04:22:19.064Z,20.70
2023-03-21T04:27:20.861Z,21.95
2023-03-21T04:32:24.698Z,22.70
2023-03-21T04:37:27.868Z,23.92
2023-03-21T04:42:29.357Z,25.75
2023-03-21T04:47:31.235Z,26.30
2023-03-21T04:52:32.769Z,27.63
2023-03-21T04:57:34.296Z,26.65
2023-03-21T05:02:35.844Z,27.70
2023-03-21T05:07:38.960Z,27.48
2023-03-21T05:12:40.587Z,26.83
2023-03-21T05:17:42.674Z,26.70
2023-03-21T05:22:46.269Z,28.80
2023-03-21T05:27:53.973Z,29.23
2023-03-21T05:37:57.068Z,30.08
2023-03-21T05:42:58.580Z,28.63
2023-03-21T05:48:00.266Z,29.42
2023-03-21T05:53:01.859Z,28.52
2023-03-21T05:58:03.713Z,26.77
2023-03-21T06:03:05.293Z,24.58
2023-03-21T06:08:06.910Z,23.33
2023-03-21T06:13:08.715Z,24.35
2023-03-21T06:18:10.482Z,21.52
2023-03-21T06:23:12.107Z,23.02
2023-03-21T06:28:13.647Z,25.65
2023-03-21T06:33:15.399Z,25.20
2023-03-21T06:38:16.909Z,24.42
2023-03-21T06:43:18.391Z,26.50
2023-03-21T06:48:19.994Z,29.48
2023-03-21T06:53:25.009Z,30.35
2023-03-21T06:58:27.105Z,30.60
2023-03-21T07:03:29.176Z,31.30
2023-03-21T07:08:30.693Z,29.08
2023-03-21T07:13:32.602Z,28.15
2023-03-21T07:18:34.158Z,26.00
2023-03-21T07:23:36.015Z,23.58
2023-03-21T07:28:37.538Z,22.00
2023-03-21T07:33:39.064Z,20.13
2023-03-21T07:38:41.240Z,23.35
2023-03-21T07:43:42.805Z,23.83
2023-03-21T07:48:44.360Z,22.63
2023-03-21T07:53:48.578Z,23.08
2023-03-21T07:58:50.223Z,24.20
2023-03-21T08:03:53.801Z,22.80
2023-03-21T08:08:55.441Z,24.42
2023-03-21T08:13:58.153Z,22.77
2023-03-21T08:18:59.692Z,21.08
2023-03-21T08:24:01.387Z,21.90
2023-03-21T08:29:02.935Z,20.63
2023-03-21T08:34:04.470Z,19.90
2023-03-21T08:39:06.470Z,19.00
2023-03-21T08:44:08.040Z,18.67
2023-03-21T08:49:09.580Z,18.50
2023-03-21T08:54:21.797Z,17.63
2023-03-21T08:59:23.786Z,16.08
2023-03-21T09:04:28.001Z,16.10
2023-03-21T09:09:29.612Z,15.88
2023-03-21T09:14:31.195Z,14.95
2023-03-21T09:19:33.137Z,14.45
2023-03-21T09:24:34.637Z,14.20
2023-03-21T09:29:36.158Z,15.18
2023-03-21T09:34:41.009Z,15.25
2023-03-21T09:39:44.828Z,14.55
2023-03-21T09:45:10.027Z,14.95
2023-03-21T09:50:20.003Z,15.15
2023-03-21T09:55:35.095Z,15.27
2023-03-21T10:00:40.524Z,14.73
2023-03-21T10:05:45.903Z,15.10
2023-03-21T10:10:50.501Z,14.40
2023-03-21T10:15:57.578Z,14.88
2023-03-21T10:21:06.257Z,14.27
2023-03-21T10:26:08.178Z,13.70
2023-03-21T10:31:15.034Z,12.13
2023-03-21T10:36:22.751Z,11.47
2023-03-21T10:41:24.568Z,11.45
2023-03-21T10:46:27.362Z,10.15
2023-03-21T10:51:33.570Z,9.60
2023-03-21T10:56:38.445Z,9.10
2023-03-21T11:01:42.986Z,11.00
2023-03-21T11:06:54.877Z,9.35
2023-03-21T11:12:12.170Z,9.30
2023-03-21T11:17:16.702Z,9.43
2023-03-21T11:22:23.302Z,9.90
2023-03-21T11:27:29.344Z,11.15
2023-03-21T11:32:38.261Z,10.90
2023-03-21T11:37:47.036Z,11.75
2023-03-21T11:42:56.757Z,11.63
2023-03-21T11:48:00.309Z,11.90
2023-03-21T11:53:26.575Z,12.02
2023-03-21T11:58:49.672Z,11.82
2023-03-21T12:04:18.858Z,11.63
2023-03-21T12:09:20.336Z,13.48
2023-03-21T12:14:36.143Z,12.75
2023-03-21T12:19:44.320Z,12.95
2023-03-21T12:24:45.758Z,13.73
2023-03-21T12:30:00.929Z,13.27
2023-03-21T12:35:24.853Z,12.75
2023-03-21T12:40:53.538Z,13.18
2023-03-21T12:46:03.293Z,12.90
2023-03-21T12:51:11.386Z,12.10
2023-03-21T12:56:21.139Z,10.80
2023-03-21T13:01:24.391Z,10.05
2023-03-21T13:06:28.161Z,9.77
2023-03-21T13:11:31.204Z,9.88
2023-03-21T13:16:36.592Z,9.98
2023-03-21T13:22:00.173Z,9.57
2023-03-21T13:27:08.521Z,9.57
2023-03-21T13:32:33.047Z,9.18
2023-03-21T13:37:38.909Z,8.88
2023-03-21T13:42:50.158Z,7.35
2023-03-21T13:47:55.165Z,6.63
2023-03-21T13:53:21.492Z,6.10
2023-03-21T13:58:24.207Z,5.90
2023-03-21T14:03:30.764Z,6.90
2023-03-21T14:08:37.759Z,6.25
2023-03-21T14:13:50.965Z,6.18
2023-03-21T14:18:56.520Z,7.32
2023-03-21T14:24:06.389Z,7.70
2023-03-21T14:29:24.709Z,8.50
2023-03-21T14:34:29.499Z,8.60
2023-03-21T14:39:32.918Z,9.38
2023-03-21T14:44:53.928Z,8.73
2023-03-21T14:49:58.040Z,8.73
2023-03-21T14:55:01.946Z,8.70
2023-03-21T15:00:12.744Z,7.68
2023-03-21T15:05:39.594Z,7.60
2023-03-21T15:10:41.678Z,8.30
2023-03-21T15:15:44.078Z,9.50
2023-03-21T15:20:47.854Z,9.55
2023-03-21T15:25:50.846Z,10.68
2023-03-21T15:30:53.313Z,11.10
2023-03-21T15:35:58.380Z,11.52
2023-03-21T15:41:27.734Z,12.38
2023-03-21T15:46:49.642Z,11.80
2023-03-21T15:51:57.244Z,8.38
2023-03-21T16:02:17.014Z,4.97
2023-03-21T16:07:18.701Z,5.00
2023-03-21T16:12:20.335Z,4.75
2023-03-21T16:17:37.316Z,5.32
2023-03-21T16:22:38.796Z,6.03
2023-03-21T16:27:40.347Z,4.80
2023-03-21T16:32:42.255Z,3.90
2023-03-21T16:37:44.216Z,3.40
2023-03-21T16:42:45.812Z,3.10
2023-03-21T16:47:47.904Z,3.13
2023-03-21T16:52:49.510Z,3.10
2023-03-21T16:57:52.505Z,3.20
2023-03-21T17:02:56.149Z,2.88
2023-03-21T17:07:57.806Z,2.92
2023-03-21T17:12:59.374Z,3.05
2023-03-21T17:18:01.145Z,3.10
2023-03-21T17:23:02.762Z,3.10
2023-03-21T17:28:04.348Z,2.90
2023-03-21T17:33:05.951Z,2.30
2023-03-21T17:38:15.576Z,2.70
2023-03-21T17:43:19.542Z,4.50
2023-03-21T17:48:21.871Z,4.20
2023-03-21T17:53:23.519Z,2.78
2023-03-21T17:58:26.230Z,3.42
2023-03-21T18:03:27.794Z,3.50
2023-03-21T18:08:29.738Z,2.60
2023-03-21T18:13:31.341Z,3.15
2023-03-21T18:18:33.999Z,2.20
2023-03-21T18:23:35.973Z,2.90
2023-03-21T18:28:40.026Z,3.90
2023-03-21T18:33:44.969Z,2.22
2023-03-21T18:38:47.185Z,2.22
2023-03-21T18:44:15.606Z,1.80
2023-03-21T18:49:52.108Z,1.73
2023-03-21T18:54:38.423Z,2.30
2023-03-21T18:59:39.983Z,6.47
2023-03-21T19:04:41.630Z,6.43
2023-03-21T19:10:05.193Z,4.13
2023-03-21T19:15:06.020Z,8.73
2023-03-21T19:20:08.235Z,12.98
2023-03-21T19:25:11.080Z,7.55
2023-03-21T19:30:15.708Z,2.63
2023-03-21T19:35:17.554Z,2.50
2023-03-21T19:40:19.911Z,3.05
2023-03-21T19:45:21.523Z,2.65
2023-03-21T19:50:49.363Z,2.78
2023-03-21T19:55:51.928Z,3.10
2023-03-21T20:00:53.851Z,3.30
2023-03-21T20:06:07.410Z,5.65
2023-03-21T20:11:08.995Z,2.97
2023-03-21T20:16:11.189Z,2.65
2023-03-21T20:21:17.694Z,2.58
2023-03-21T20:26:20.268Z,2.70
2023-03-21T20:31:22.917Z,2.15
2023-03-21T20:36:38.662Z,3.60
2023-03-21T20:41:41.435Z,2.08
2023-03-21T20:46:44.055Z,2.50
2023-03-21T20:52:45.801Z,2.70
2023-03-21T20:57:07.155Z,2.60
2023-03-21T21:02:10.220Z,3.17
2023-03-21T21:07:17.134Z,2.72
2023-03-21T21:12:19.379Z,3.50
2023-03-21T21:17:37.174Z,3.20
2023-03-21T21:22:58.084Z,3.15
2023-03-21T21:28:03.663Z,3.20
2023-03-21T21:33:05.493Z,3.15
2023-03-21T21:38:07.061Z,3.58
2023-03-21T21:43:08.737Z,5.15
2023-03-21T21:48:11.553Z,4.50
2023-03-21T21:53:13.950Z,4.68
2023-03-21T21:58:21.992Z,4.93
2023-03-21T22:03:23.603Z,5.22
2023-03-21T22:08:25.406Z,5.63
2023-03-21T22:13:27.712Z,7.00
2023-03-21T22:18:29.224Z,6.85
2023-03-21T22:23:30.882Z,6.70
2023-03-21T22:28:34.376Z,6.38
2023-03-21T22:33:35.974Z,5.70
2023-03-21T22:38:38.249Z,5.72
2023-03-21T22:43:39.825Z,5.78
2023-03-21T22:48:41.459Z,4.72
2023-03-21T22:53:42.945Z,4.95
2023-03-21T22:58:44.492Z,4.40
2023-03-21T23:03:46.263Z,5.07
2023-03-21T23:08:47.804Z,3.65
2023-03-21T23:13:58.743Z,4.43
2023-03-21T23:19:08.324Z,3.05
2023-03-21T23:24:10.669Z,3.78
2023-03-21T23:29:12.232Z,3.25
2023-03-21T23:34:14.084Z,3.13
2023-03-21T23:39:18.628Z,2.40
2023-03-21T23:44:20.212Z,3.38
2023-03-21T23:49:21.697Z,2.20
2023-03-21T23:54:23.195Z,2.47
2023-03-21T23:59:24.757Z,2.10
